Time;durP1;ratioP1;P1;durP2;ratioP2;P2;SDS_P1;SDS_P2;PMS_P1;PMS_P2;Temp;Humidity;BMP_temperature;BMP_pressure;BME280_temperature;BME280_humidity;BME280_pressure;Samples;Min_cycle;Max_cycle;Signal;HPM_P1;HPM_P2
2023/08/08 00:01:51;;;;;;;0.40;0.40;;;;;;;12.19;100.00;97864.00;1222723;75;2924630;-69
2023/08/08 00:04:24;;;;;;;0.30;0.30;;;;;;;12.27;100.00;97859.63;1224126;75;2926861;-69
2023/08/08 00:06:56;;;;;;;0.50;0.30;;;;;;;12.32;100.00;97867.16;1222939;75;2931476;-71
2023/08/08 00:09:29;;;;;;;0.45;0.45;;;;;;;12.25;100.00;97866.81;1222829;75;2930835;-70
2023/08/08 00:12:02;;;;;;;0.40;0.40;;;;;;;12.20;100.00;97868.25;1222647;75;2945247;-71
2023/08/08 00:14:34;;;;;;;0.60;0.50;;;;;;;12.28;100.00;97872.09;1223487;75;2925721;-73
2023/08/08 00:17:10;;;;;;;0.40;0.40;;;;;;;12.10;100.00;97864.91;1223116;75;2928607;-72
2023/08/08 00:19:42;;;;;;;0.50;0.50;;;;;;;12.27;100.00;97870.59;1222822;75;2928152;-71
2023/08/08 00:22:15;;;;;;;0.40;0.40;;;;;;;12.32;100.00;97869.91;1224165;75;2922731;-71
2023/08/08 00:24:47;;;;;;;0.70;0.40;;;;;;;12.33;100.00;97867.91;1223217;75;2919697;-72
2023/08/08 00:27:20;;;;;;;0.70;0.60;;;;;;;12.32;100.00;97867.16;1222950;75;2927490;-71
2023/08/08 00:29:54;;;;;;;0.45;0.45;;;;;;;12.15;100.00;97868.97;1223321;75;2926443;-72
2023/08/08 00:32:29;;;;;;;0.70;0.70;;;;;;;12.04;100.00;97866.81;1223376;75;2918984;-71
2023/08/08 00:35:02;;;;;;;0.60;0.60;;;;;;;12.08;100.00;97867.38;1223420;75;2923236;-70
2023/08/08 00:37:35;;;;;;;1.10;0.70;;;;;;;12.12;100.00;97859.69;1222565;75;2926606;-71
2023/08/08 00:40:09;;;;;;;0.75;0.75;;;;;;;12.04;100.00;97857.84;1223803;75;2924423;-70
2023/08/08 00:42:42;;;;;;;0.80;0.80;;;;;;;11.90;100.00;97862.91;1222297;75;2925719;-71
2023/08/08 00:45:14;;;;;;;0.75;0.75;;;;;;;11.68;100.00;97857.09;1223684;75;2923739;-71
2023/08/08 00:47:49;;;;;;;1.50;0.80;;;;;;;11.98;100.00;97857.00;1223721;75;2921305;-72
2023/08/08 00:50:23;;;;;;;0.60;0.55;;;;;;;11.91;100.00;97856.19;1219768;75;3025883;-73
2023/08/08 00:52:55;;;;;;;0.50;0.50;;;;;;;12.05;100.00;97853.84;1223327;75;2924049;-71
2023/08/08 00:55:28;;;;;;;0.60;0.60;;;;;;;12.05;100.00;97851.09;1223369;75;2927583;-71
2023/08/08 00:58:01;;;;;;;0.50;0.50;;;;;;;11.96;100.00;97851.25;1222850;75;2927642;-70
2023/08/08 01:00:33;;;;;;;0.50;0.40;;;;;;;11.98;100.00;97860.53;1223577;75;2920051;-71
2023/08/08 01:03:10;;;;;;;0.35;0.35;;;;;;;11.63;100.00;97863.25;1222797;75;2927699;-70
2023/08/08 01:05:51;;;;;;;0.70;0.60;;;;;;;11.77;100.00;97875.44;1223136;75;2931979;-70
2023/08/08 01:08:30;;;;;;;0.70;0.60;;;;;;;11.79;100.00;97867.47;1222686;75;2928518;-68
2023/08/08 01:11:03;;;;;;;0.65;0.50;;;;;;;11.67;100.00;97861.09;1222328;75;2927797;-67
2023/08/08 01:13:37;;;;;;;0.60;0.60;;;;;;;11.71;100.00;97867.88;1223153;75;2926391;-69
2023/08/08 01:16:10;;;;;;;0.50;0.50;;;;;;;11.68;100.00;97870.81;1222002;75;2926160;-69
2023/08/08 01:18:49;;;;;;;0.40;0.40;;;;;;;11.72;100.00;97874.13;1222707;75;2930368;-71
2023/08/08 01:21:22;;;;;;;0.40;0.40;;;;;;;11.68;100.00;97877.03;1222388;75;2925921;-72
2023/08/08 01:24:03;;;;;;;0.40;0.40;;;;;;;11.69;100.00;97880.56;1222929;75;2926230;-72
2023/08/08 01:26:40;;;;;;;0.40;0.40;;;;;;;11.38;100.00;97876.38;1223369;75;2922760;-70
2023/08/08 01:29:13;;;;;;;0.50;0.50;;;;;;;11.37;100.00;97877.59;1222531;75;2924963;-68
2023/08/08 01:31:45;;;;;;;0.30;0.30;;;;;;;11.37;100.00;97882.31;1223792;75;2918288;-70
2023/08/08 01:34:18;;;;;;;0.50;0.50;;;;;;;11.33;100.00;97884.50;1223247;75;2922433;-71
2023/08/08 01:36:58;;;;;;;0.50;0.50;;;;;;;11.32;100.00;97880.25;1223377;75;2924973;-67
2023/08/08 01:39:33;;;;;;;0.40;0.40;;;;;;;11.12;100.00;97878.97;1222670;75;2923436;-72
2023/08/08 01:42:11;;;;;;;0.60;0.60;;;;;;;11.14;100.00;97876.50;1223423;75;2931273;-69
2023/08/08 01:44:45;;;;;;;0.50;0.45;;;;;;;11.14;100.00;97871.03;1223201;75;2929718;-70
2023/08/08 01:47:18;;;;;;;0.55;0.40;;;;;;;11.12;100.00;97870.00;1223239;75;2919450;-71
2023/08/08 01:49:51;;;;;;;0.50;0.50;;;;;;;11.09;100.00;97882.66;1222704;67;2925767;-71
2023/08/08 01:52:23;;;;;;;0.55;0.50;;;;;;;11.04;100.00;97880.56;1222345;75;2925104;-69
2023/08/08 01:54:56;;;;;;;0.50;0.50;;;;;;;11.05;100.00;97871.13;1223181;75;2930156;-71
2023/08/08 01:57:31;;;;;;;0.50;0.50;;;;;;;11.05;100.00;97871.88;1223508;75;2929281;-73
2023/08/08 02:00:04;;;;;;;0.70;0.60;;;;;;;11.00;100.00;97875.28;1223963;75;2917712;-72
2023/08/08 02:02:37;;;;;;;0.50;0.50;;;;;;;10.95;100.00;97883.41;1223184;75;2921215;-73
2023/08/08 02:05:10;;;;;;;0.55;0.50;;;;;;;10.84;100.00;97886.69;1224438;75;2920950;-72
2023/08/08 02:07:43;;;;;;;2.95;0.70;;;;;;;10.88;100.00;97882.56;1223310;75;2928049;-67
2023/08/08 02:10:16;;;;;;;0.60;0.60;;;;;;;10.86;100.00;97889.72;1223109;75;2919082;-71
2023/08/08 02:12:51;;;;;;;0.80;0.60;;;;;;;10.84;100.00;97881.97;1223265;75;2923641;-71
2023/08/08 02:15:23;;;;;;;1.45;0.50;;;;;;;10.82;100.00;97884.44;1222924;75;2924179;-73
2023/08/08 02:17:57;;;;;;;0.30;0.30;;;;;;;10.83;100.00;97890.69;1223082;75;2951368;-70
2023/08/08 02:20:29;;;;;;;0.65;0.50;;;;;;;10.78;100.00;97889.34;1221947;75;2953616;-68
2023/08/08 02:23:02;;;;;;;0.50;0.50;;;;;;;10.79;100.00;97888.13;1222588;75;2925789;-70
2023/08/08 02:25:34;;;;;;;0.55;0.40;;;;;;;10.70;100.00;97893.66;1223751;75;2928635;-70
2023/08/08 02:28:10;;;;;;;0.50;0.45;;;;;;;10.71;100.00;97884.25;1223919;75;2920054;-70
2023/08/08 02:30:42;;;;;;;0.60;0.40;;;;;;;10.63;100.00;97885.81;1223359;75;2928254;-71
2023/08/08 02:33:15;;;;;;;0.40;0.40;;;;;;;10.63;100.00;97881.13;1223481;75;2927512;-72
2023/08/08 02:35:47;;;;;;;0.50;0.40;;;;;;;10.60;100.00;97884.03;1223830;75;2930169;-70
2023/08/08 02:38:20;;;;;;;0.40;0.40;;;;;;;10.60;100.00;97890.25;1223021;75;2934414;-71
2023/08/08 02:40:53;;;;;;;0.60;0.60;;;;;;;10.49;100.00;97892.06;1222429;75;2929598;-68
2023/08/08 02:43:28;;;;;;;1.00;0.70;;;;;;;10.31;100.00;97890.97;1223993;75;2926790;-72
2023/08/08 02:46:00;;;;;;;0.65;0.60;;;;;;;10.49;100.00;97890.06;1222904;75;2933594;-68
2023/08/08 02:48:33;;;;;;;0.60;0.50;;;;;;;10.55;100.00;97892.91;1223399;75;2927221;-69
2023/08/08 02:51:06;;;;;;;0.70;0.60;;;;;;;10.57;100.00;97893.19;1223398;75;2926830;-69
2023/08/08 02:53:39;;;;;;;0.50;0.50;;;;;;;10.54;100.00;97896.88;1224096;75;2927653;-69
2023/08/08 02:56:11;;;;;;;0.75;0.60;;;;;;;10.46;100.00;97896.47;1223196;75;2924417;-71
2023/08/08 02:58:46;;;;;;;0.75;0.60;;;;;;;10.16;100.00;97896.38;1223863;75;2932838;-68
2023/08/08 03:01:19;;;;;;;0.65;0.60;;;;;;;10.42;100.00;97902.13;1223087;75;2926203;-73
2023/08/08 03:03:52;;;;;;;1.10;0.70;;;;;;;10.44;100.00;97907.91;1223471;75;2923017;-69
2023/08/08 03:06:24;;;;;;;0.60;0.60;;;;;;;10.47;100.00;97908.94;1223892;75;2922344;-70
2023/08/08 03:08:57;;;;;;;0.55;0.55;;;;;;;10.30;100.00;97903.16;1223099;75;2930600;-69
2023/08/08 03:11:30;;;;;;;0.60;0.60;;;;;;;10.14;100.00;97898.06;1223375;75;2927395;-71
2023/08/08 03:14:05;;;;;;;0.90;0.60;;;;;;;10.26;100.00;97910.75;1222879;75;2923898;-69
2023/08/08 03:16:37;;;;;;;0.80;0.80;;;;;;;10.04;100.00;97908.31;1223048;75;2926034;-70
2023/08/08 03:19:10;;;;;;;0.70;0.60;;;;;;;10.18;100.00;97926.00;1222991;75;2927926;-67
2023/08/08 03:21:42;;;;;;;0.90;0.60;;;;;;;9.85;100.00;97918.59;1218733;75;2930627;-72
2023/08/08 03:24:15;;;;;;;0.55;0.50;;;;;;;10.05;100.00;97920.75;1223958;75;2923333;-74
2023/08/08 03:26:48;;;;;;;0.60;0.60;;;;;;;10.06;100.00;97918.78;1222769;75;2929439;-70
2023/08/08 03:29:23;;;;;;;1.85;1.65;;;;;;;10.07;100.00;97921.03;1223181;75;2930109;-71
2023/08/08 03:31:55;;;;;;;1.20;1.00;;;;;;;10.06;100.00;97916.81;1223065;75;2928541;-70
2023/08/08 03:34:28;;;;;;;4.25;2.60;;;;;;;9.95;100.00;97917.31;1223120;75;2924127;-70
2023/08/08 03:37:01;;;;;;;23.15;19.70;;;;;;;9.87;100.00;97905.22;1220619;75;3006767;-71
2023/08/08 03:39:33;;;;;;;15.85;14.15;;;;;;;9.81;100.00;97896.13;1222087;75;2943265;-69
2023/08/08 03:42:06;;;;;;;11.65;8.85;;;;;;;9.89;100.00;97897.31;1223253;75;2924359;-68
2023/08/08 03:44:42;;;;;;;7.95;6.30;;;;;;;9.88;100.00;97895.78;1223256;75;2928947;-71
2023/08/08 03:47:14;;;;;;;4.55;3.55;;;;;;;9.86;100.00;97902.94;1222663;75;2926163;-70
2023/08/08 03:49:47;;;;;;;2.85;2.30;;;;;;;9.77;100.00;97906.50;1222563;67;2924645;-70
2023/08/08 03:52:19;;;;;;;2.20;1.80;;;;;;;9.94;100.00;97904.13;1223141;75;2929049;-69
2023/08/08 03:54:52;;;;;;;5.00;4.25;;;;;;;9.87;100.00;97916.16;1223202;75;2930262;-72
2023/08/08 03:57:25;;;;;;;4.65;3.95;;;;;;;9.70;100.00;97913.06;1223025;75;2925699;-69
2023/08/08 04:00:00;;;;;;;5.40;3.30;;;;;;;9.85;100.00;97918.59;1222822;75;2927076;-69
2023/08/08 04:02:32;;;;;;;11.90;9.45;;;;;;;9.89;100.00;97913.72;1222684;75;2928793;-72
2023/08/08 04:05:05;;;;;;;8.00;6.75;;;;;;;9.87;100.00;97918.13;1223040;75;2923256;-71
2023/08/08 04:07:39;;;;;;;6.30;5.05;;;;;;;9.73;100.00;97925.78;1222775;75;2930090;-69
2023/08/08 04:10:13;;;;;;;4.70;3.40;;;;;;;9.65;100.00;97921.13;1221862;75;2932314;-70
2023/08/08 04:12:45;;;;;;;2.90;2.60;;;;;;;9.79;100.00;97923.94;1221998;75;2958378;-70
2023/08/08 04:15:21;;;;;;;2.70;2.15;;;;;;;10.04;100.00;97927.44;1222955;75;2920884;-70
2023/08/08 04:17:53;;;;;;;2.10;1.80;;;;;;;10.01;100.00;97926.41;1223248;75;2930589;-69
2023/08/08 04:20:26;;;;;;;1.45;1.30;;;;;;;9.85;100.00;97939.72;1222317;75;2924677;-69
2023/08/08 04:22:58;;;;;;;2.35;0.95;;;;;;;9.76;100.00;97941.25;1222583;75;2923938;-69
2023/08/08 04:25:32;;;;;;;2.30;0.90;;;;;;;9.67;100.00;97937.81;1222998;75;2926006;-68
2023/08/08 04:28:04;;;;;;;0.90;0.90;;;;;;;10.00;100.00;97940.53;1222523;75;2955197;-70
2023/08/08 04:30:39;;;;;;;0.70;0.70;;;;;;;9.99;100.00;97944.50;1223104;75;2930981;-69
2023/08/08 04:33:12;;;;;;;0.50;0.50;;;;;;;10.01;100.00;97956.50;1217403;75;3032645;-71
2023/08/08 04:35:45;;;;;;;1.00;0.70;;;;;;;9.99;100.00;97963.66;1223714;75;2931148;-69
2023/08/08 04:38:18;;;;;;;0.90;0.80;;;;;;;9.96;100.00;97957.13;1221488;75;2941494;-71
2023/08/08 04:40:51;;;;;;;2.70;0.80;;;;;;;9.98;100.00;97962.13;1222795;75;2931872;-70
2023/08/08 04:43:23;;;;;;;1.75;1.10;;;;;;;10.08;100.00;97963.59;1223439;75;2932400;-73
2023/08/08 04:45:58;;;;;;;1.00;0.70;;;;;;;10.26;100.00;97962.72;1223372;75;2918481;-71
2023/08/08 04:48:32;;;;;;;0.85;0.70;;;;;;;10.24;100.00;97960.44;1221986;75;2919887;-69
2023/08/08 04:51:05;;;;;;;1.00;0.70;;;;;;;10.20;100.00;97968.09;1222204;75;2919953;-73
2023/08/08 04:53:37;;;;;;;0.85;0.70;;;;;;;10.12;100.00;97966.16;1223191;75;2922299;-70
2023/08/08 04:56:10;;;;;;;1.05;0.80;;;;;;;10.24;100.00;97965.16;1223552;75;2928434;-73
2023/08/08 04:58:42;;;;;;;1.60;1.00;;;;;;;10.24;100.00;97959.69;1222882;75;2924518;-70
2023/08/08 05:01:20;;;;;;;0.80;0.80;;;;;;;10.44;100.00;97970.09;1223003;75;2923379;-69
2023/08/08 05:03:52;;;;;;;2.50;1.70;;;;;;;10.44;100.00;97976.31;1223554;75;2922167;-68
2023/08/08 05:06:25;;;;;;;3.65;1.70;;;;;;;10.56;100.00;97974.56;1223427;75;2921640;-74
2023/08/08 05:08:59;;;;;;;2.55;1.60;;;;;;;10.65;100.00;97984.69;1223246;75;2856686;-69
2023/08/08 05:11:32;;;;;;;3.45;1.95;;;;;;;10.72;100.00;97983.56;1222910;75;2924461;-70
2023/08/08 05:14:05;;;;;;;2.05;1.35;;;;;;;10.73;100.00;97980.38;1223774;75;2923328;-72
2023/08/08 05:16:40;;;;;;;1.10;1.00;;;;;;;10.84;100.00;97983.31;1223456;75;2925294;-70
2023/08/08 05:19:13;;;;;;;1.50;1.00;;;;;;;10.91;100.00;97993.16;1222824;75;2935919;-70
2023/08/08 05:21:45;;;;;;;0.65;0.60;;;;;;;11.03;100.00;97988.63;1223751;75;2922151;-72
2023/08/08 05:24:18;;;;;;;1.15;0.60;;;;;;;10.99;100.00;97994.31;1223195;75;2933979;-70
2023/08/08 05:26:51;;;;;;;1.50;1.10;;;;;;;11.15;100.00;97997.81;1223476;75;2926596;-72
2023/08/08 05:29:23;;;;;;;2.15;0.80;;;;;;;11.21;100.00;98001.44;1223151;75;2922968;-71
2023/08/08 05:31:58;;;;;;;1.60;0.85;;;;;;;11.44;100.00;98000.56;1222674;75;2924301;-71
2023/08/08 05:34:31;;;;;;;0.70;0.70;;;;;;;11.50;100.00;97993.19;1222128;75;2924134;-70
2023/08/08 05:37:04;;;;;;;0.80;0.65;;;;;;;11.51;100.00;97991.97;1222706;75;2929294;-71
2023/08/08 05:39:37;;;;;;;2.60;0.70;;;;;;;11.68;100.00;98010.69;1223070;75;2921069;-72
2023/08/08 05:42:10;;;;;;;1.10;0.90;;;;;;;11.83;100.00;97999.69;1223355;75;2922816;-70
2023/08/08 05:44:44;;;;;;;1.00;0.90;;;;;;;11.82;100.00;98003.66;1223512;75;2921336;-69
2023/08/08 05:47:19;;;;;;;1.30;1.00;;;;;;;11.96;100.00;98002.16;1222706;75;2929833;-71
2023/08/08 05:49:52;;;;;;;1.35;0.95;;;;;;;12.20;100.00;97999.25;1223283;75;2924107;-71
2023/08/08 05:52:24;;;;;;;0.75;0.70;;;;;;;12.37;100.00;98000.22;1223495;75;2920814;-71
2023/08/08 05:54:58;;;;;;;1.10;0.95;;;;;;;12.36;100.00;98006.94;1223901;67;2919787;-73
2023/08/08 05:57:31;;;;;;;1.15;1.05;;;;;;;12.55;100.00;97999.97;1223103;75;2926773;-72
2023/08/08 06:00:04;;;;;;;1.10;0.90;;;;;;;12.81;100.00;98001.25;1223615;75;2922567;-72
2023/08/08 06:02:39;;;;;;;0.80;0.70;;;;;;;12.99;100.00;98000.97;1223467;75;2919853;-71
2023/08/08 06:05:14;;;;;;;1.10;0.70;;;;;;;13.05;100.00;97995.53;1221321;75;2928664;-71
2023/08/08 06:07:46;;;;;;;1.65;1.05;;;;;;;13.21;100.00;98000.44;1223537;75;2924881;-71
2023/08/08 06:10:19;;;;;;;0.95;0.85;;;;;;;13.42;100.00;98003.91;1223318;75;2925628;-73
2023/08/08 06:12:51;;;;;;;1.60;1.00;;;;;;;13.57;100.00;97999.03;1222802;75;2925994;-69
2023/08/08 06:15:24;;;;;;;2.15;1.05;;;;;;;13.79;99.37;98001.22;1224249;75;2925708;-71
2023/08/08 06:18:00;;;;;;;1.55;1.00;;;;;;;13.89;99.04;98001.78;1223452;75;2922048;-72
2023/08/08 06:20:33;;;;;;;1.10;1.00;;;;;;;14.16;95.54;98000.44;1223317;75;2925879;-72
2023/08/08 06:23:06;;;;;;;1.10;0.80;;;;;;;14.49;90.63;97999.88;1223651;75;2921936;-71
2023/08/08 06:25:38;;;;;;;1.00;0.90;;;;;;;14.37;87.72;98000.31;1223900;75;2925448;-70
2023/08/08 06:28:11;;;;;;;2.25;1.20;;;;;;;14.34;85.79;98004.06;1223660;75;2923940;-69
2023/08/08 06:30:44;;;;;;;1.10;1.00;;;;;;;14.79;85.45;97999.53;1224315;75;2920893;-73
2023/08/08 06:33:19;;;;;;;1.85;1.10;;;;;;;15.10;85.76;97993.13;1224477;75;2920187;-72
2023/08/08 06:35:51;;;;;;;1.15;0.70;;;;;;;15.21;81.79;97989.63;1223648;75;2925387;-71
2023/08/08 06:38:24;;;;;;;0.95;0.70;;;;;;;15.44;80.46;97993.16;1223854;75;2928431;-74
2023/08/08 06:40:57;;;;;;;1.25;0.85;;;;;;;15.40;79.92;97991.91;1223565;75;2927248;-71
2023/08/08 06:43:29;;;;;;;2.50;1.75;;;;;;;15.62;80.70;97993.91;1223190;75;2922977;-70
2023/08/08 06:46:02;;;;;;;1.60;1.35;;;;;;;15.46;78.99;97990.63;1222020;75;2921872;-72
2023/08/08 06:48:37;;;;;;;1.45;1.20;;;;;;;15.66;77.78;97994.41;1223982;75;2921852;-68
2023/08/08 06:51:10;;;;;;;2.50;0.95;;;;;;;15.72;76.09;98000.72;1221717;75;2924974;-70
2023/08/08 06:53:42;;;;;;;1.70;1.05;;;;;;;15.77;78.95;97991.66;1223062;75;2931147;-71
2023/08/08 06:56:15;;;;;;;1.80;1.00;;;;;;;15.86;74.02;98001.72;1223751;75;2930642;-70
2023/08/08 06:58:48;;;;;;;2.25;0.70;;;;;;;16.22;74.40;98001.91;1223539;75;2922573;-71
2023/08/08 07:01:20;;;;;;;1.05;0.85;;;;;;;15.93;74.63;98009.50;1222604;75;2922217;-70
2023/08/08 07:03:55;;;;;;;1.25;0.80;;;;;;;16.11;74.68;98008.19;1223714;75;2921657;-72
2023/08/08 07:06:28;;;;;;;1.30;1.05;;;;;;;16.38;73.92;98010.16;1224147;75;2920757;-71
2023/08/08 07:09:03;;;;;;;1.40;1.20;;;;;;;16.22;74.17;98001.91;1222670;75;2931861;-71
2023/08/08 07:11:36;;;;;;;1.40;1.10;;;;;;;16.46;76.17;98006.88;1223331;75;2919701;-72
2023/08/08 07:14:08;;;;;;;2.40;1.00;;;;;;;16.76;73.61;97999.47;1223559;75;2918217;-68
2023/08/08 07:16:41;;;;;;;1.95;1.20;;;;;;;16.19;73.83;97993.38;1223180;75;2924048;-69
2023/08/08 07:19:16;;;;;;;2.35;2.05;;;;;;;16.46;74.58;97999.31;1223303;75;2917732;-74
2023/08/08 07:21:49;;;;;;;5.70;2.80;;;;;;;16.55;72.83;97998.31;1222382;75;2924679;-75
2023/08/08 07:24:22;;;;;;;3.50;1.35;;;;;;;16.32;74.10;97997.63;1223400;75;2920868;-75
2023/08/08 07:26:55;;;;;;;2.05;1.40;;;;;;;16.93;72.88;97993.13;1223299;75;2922226;-72
2023/08/08 07:29:28;;;;;;;1.80;1.10;;;;;;;16.68;72.09;97984.66;1223492;75;2920935;-69
2023/08/08 07:32:05;;;;;;;1.60;1.00;;;;;;;17.01;71.22;97989.31;1221596;75;2925156;-71
2023/08/08 07:34:41;;;;;;;2.30;1.30;;;;;;;16.87;66.79;97984.88;1224023;75;2927225;-71
2023/08/08 07:37:14;;;;;;;1.40;0.90;;;;;;;17.08;65.21;97987.25;1223709;75;2924840;-71
2023/08/08 07:39:46;;;;;;;2.20;1.05;;;;;;;17.37;67.72;97983.06;1222999;75;2926155;-70
2023/08/08 07:42:19;;;;;;;1.35;1.00;;;;;;;17.62;66.09;97981.84;1223325;75;2924560;-77
2023/08/08 07:44:51;;;;;;;2.00;1.10;;;;;;;17.66;67.32;97981.56;1223508;75;2929192;-73
2023/08/08 07:47:24;;;;;;;0.75;0.70;;;;;;;17.83;65.58;97978.69;1223798;75;2930669;-73
2023/08/08 07:50:00;;;;;;;1.40;0.90;;;;;;;17.89;64.98;97976.59;1223732;75;2929052;-71
2023/08/08 07:52:32;;;;;;;1.75;0.90;;;;;;;17.76;65.71;97973.69;1217622;75;3062200;-72
2023/08/08 07:55:05;;;;;;;1.25;0.90;;;;;;;17.91;66.32;97974.06;1224502;75;2926421;-74
2023/08/08 07:57:39;;;;;;;1.50;0.80;;;;;;;17.90;65.85;97974.59;1223947;75;2919144;-72
2023/08/08 08:00:13;;;;;;;3.10;2.30;;;;;;;18.26;67.39;97975.25;1222802;75;2927696;-73
2023/08/08 08:02:48;;;;;;;2.45;1.30;;;;;;;17.84;59.49;97969.09;1223790;75;2926588;-72
2023/08/08 08:05:23;;;;;;;0.90;0.60;;;;;;;18.06;57.77;97968.91;1222567;75;2924012;-71
2023/08/08 08:07:56;;;;;;;1.10;0.60;;;;;;;18.13;61.25;97966.81;1223286;75;2923957;-75
2023/08/08 08:10:28;;;;;;;1.00;0.50;;;;;;;18.51;57.97;97957.28;1223885;75;2848090;-74
2023/08/08 08:13:01;;;;;;;1.20;0.50;;;;;;;18.30;55.32;97948.75;1223209;75;2927291;-73
2023/08/08 08:15:34;;;;;;;0.90;0.60;;;;;;;18.36;58.58;97951.44;1224531;75;2921597;-71
2023/08/08 08:18:07;;;;;;;1.80;1.20;;;;;;;18.26;59.08;97947.53;1223085;75;2922281;-70
2023/08/08 08:20:43;;;;;;;1.35;0.90;;;;;;;18.80;60.02;97956.97;1222291;75;2936779;-76
2023/08/08 08:23:15;;;;;;;1.00;0.80;;;;;;;18.79;59.39;97949.94;1223456;75;2926246;-71
2023/08/08 08:25:51;;;;;;;0.60;0.60;;;;;;;18.48;58.22;97955.56;1221595;75;2923080;-72
2023/08/08 08:28:24;;;;;;;1.25;0.75;;;;;;;18.59;57.35;97951.16;1224024;75;2921372;-72
2023/08/08 08:30:56;;;;;;;1.60;0.70;;;;;;;18.68;55.96;97951.53;1145906;75;6651179;-67
2023/08/08 08:33:29;;;;;;;1.20;0.70;;;;;;;18.68;56.05;97951.53;1118289;75;5823642;-67
2023/08/08 08:36:04;;;;;;;2.40;0.70;;;;;;;19.16;56.82;97951.91;1145570;75;5091728;-70
2023/08/08 08:38:37;;;;;;;1.00;0.50;;;;;;;19.42;57.83;97942.19;1061558;75;7690884;-70
2023/08/08 08:41:12;;;;;;;1.10;1.00;;;;;;;19.73;57.51;97937.94;1214058;75;3090791;-69
2023/08/08 08:43:45;;;;;;;1.00;0.50;;;;;;;19.59;56.72;97940.63;1222699;75;2924846;-68
2023/08/08 08:46:23;;;;;;;2.30;0.80;;;;;;;19.47;55.32;97938.59;1197542;75;5417876;-68
2023/08/08 08:48:58;;;;;;;0.60;0.50;;;;;;;19.47;54.33;97935.81;1222913;75;2923337;-70
2023/08/08 08:51:33;;;;;;;0.95;0.60;;;;;;;19.59;53.01;97939.88;1221524;75;2925599;-67
2023/08/08 08:54:07;;;;;;;1.30;0.70;;;;;;;20.00;53.45;97922.03;1153860;75;8601812;-69
2023/08/08 08:56:40;;;;;;;1.45;0.85;;;;;;;19.90;52.80;97929.28;1222283;75;2929460;-72
2023/08/08 08:59:12;;;;;;;2.60;2.30;;;;;;;19.96;51.95;97921.59;1222546;75;2923917;-72
2023/08/08 09:01:45;;;;;;;1.35;0.80;;;;;;;19.72;51.88;97925.31;1222709;75;2920860;-71
2023/08/08 09:04:21;;;;;;;1.35;0.75;;;;;;;20.21;51.26;97919.34;1223509;75;2920574;-68
2023/08/08 09:06:57;;;;;;;1.05;0.90;;;;;;;20.37;51.39;97921.06;1223048;75;2931843;-71
2023/08/08 09:09:29;;;;;;;1.45;0.60;;;;;;;20.70;50.68;97921.66;1221443;75;2926751;-70
2023/08/08 09:12:03;;;;;;;1.45;0.95;;;;;;;20.62;49.33;97918.78;1222920;75;2921554;-71
2023/08/08 09:14:36;;;;;;;1.00;0.90;;;;;;;20.66;46.60;97917.69;1224286;75;2928701;-72
2023/08/08 09:17:15;;;;;;;1.30;0.90;;;;;;;20.78;47.93;97918.94;1222761;75;2925205;-71
2023/08/08 09:19:48;;;;;;;0.95;0.70;;;;;;;20.70;48.78;97909.78;1222604;75;2922161;-69
2023/08/08 09:22:24;;;;;;;0.65;0.60;;;;;;;21.28;48.45;97908.69;1221839;67;2930333;-70
2023/08/08 09:24:56;;;;;;;0.95;0.70;;;;;;;20.77;45.64;97909.13;1223352;75;2923075;-71
2023/08/08 09:27:31;;;;;;;1.35;0.90;;;;;;;21.23;47.11;97910.31;1223224;75;2925716;-71
2023/08/08 09:30:04;;;;;;;1.45;0.95;;;;;;;21.38;47.95;97906.19;1223795;75;2918553;-70
2023/08/08 09:32:37;;;;;;;0.90;0.70;;;;;;;21.43;47.10;97896.97;1223567;75;2925767;-71
2023/08/08 09:35:11;;;;;;;0.95;0.70;;;;;;;21.54;49.65;97905.03;1223375;75;2927886;-71
2023/08/08 09:37:47;;;;;;;1.85;0.90;;;;;;;21.66;48.46;97900.69;1223009;75;2909768;-70
2023/08/08 09:40:21;;;;;;;1.25;0.85;;;;;;;21.11;47.25;97894.44;1222862;75;2923449;-71
2023/08/08 09:42:56;;;;;;;1.10;0.90;;;;;;;21.26;45.57;97891.78;1223258;75;2921837;-73
2023/08/08 09:45:28;;;;;;;1.65;0.75;;;;;;;21.62;46.57;97891.16;1223319;75;2932867;-70
2023/08/08 09:48:04;;;;;;;1.70;0.95;;;;;;;21.59;47.47;97893.00;1223067;75;2923870;-70
2023/08/08 09:50:38;;;;;;;1.25;0.70;;;;;;;22.12;46.71;97881.44;1222790;83;2925562;-71
2023/08/08 09:53:14;;;;;;;1.15;0.60;;;;;;;21.63;47.27;97881.53;1221863;75;2920654;-70
2023/08/08 09:55:48;;;;;;;1.90;0.90;;;;;;;21.74;48.14;97878.44;1222759;75;2926629;-72
2023/08/08 09:58:21;;;;;;;1.95;0.75;;;;;;;21.70;47.39;97875.28;1223206;75;2936336;-70
2023/08/08 10:00:54;;;;;;;1.95;1.00;;;;;;;21.66;47.99;97875.59;1222907;75;2923653;-68
2023/08/08 10:03:27;;;;;;;0.90;0.70;;;;;;;21.95;46.40;97872.81;1222422;75;2928601;-72
2023/08/08 10:06:00;;;;;;;2.40;0.65;;;;;;;21.61;47.31;97870.19;1223458;75;2927085;-70
2023/08/08 10:08:35;;;;;;;1.95;1.10;;;;;;;22.68;48.46;97870.75;1222046;75;2926596;-72
2023/08/08 10:11:10;;;;;;;2.95;0.70;;;;;;;22.04;45.37;97875.09;1223722;75;2925701;-70
2023/08/08 10:13:50;;;;;;;0.85;0.60;;;;;;;22.25;44.63;97865.94;1222241;75;2923313;-70
2023/08/08 10:16:25;;;;;;;1.65;0.90;;;;;;;22.22;42.07;97873.34;1222461;75;2928076;-70
2023/08/08 10:19:02;;;;;;;2.35;0.90;;;;;;;22.39;41.67;97863.75;1224111;75;2919377;-69
2023/08/08 10:21:37;;;;;;;2.20;0.90;;;;;;;22.38;43.05;97859.47;1222832;75;2924136;-72
2023/08/08 10:24:14;;;;;;;0.90;0.55;;;;;;;23.07;43.35;97849.25;1224037;75;2922170;-71
2023/08/08 10:26:57;;;;;;;0.80;0.70;;;;;;;22.89;43.68;97850.31;1223834;75;2925327;-71
2023/08/08 10:29:31;;;;;;;0.80;0.70;;;;;;;22.49;41.62;97850.78;1223587;75;2922037;-72
2023/08/08 10:32:08;;;;;;;0.70;0.60;;;;;;;23.26;43.24;97840.50;1223370;75;2918077;-69
2023/08/08 10:34:46;;;;;;;2.65;0.70;;;;;;;22.53;40.63;97843.53;1223729;75;2921972;-72
2023/08/08 10:37:23;;;;;;;1.50;0.70;;;;;;;23.50;39.67;97832.84;1223990;75;2924294;-72
2023/08/08 10:40:05;;;;;;;0.70;0.70;;;;;;;23.81;41.14;97825.94;1222767;75;2924146;-71
2023/08/08 10:42:46;;;;;;;4.00;1.95;;;;;;;23.80;41.03;97821.63;1224629;75;2922681;-70
2023/08/08 10:45:20;;;;;;;2.75;1.80;;;;;;;22.88;41.83;97821.66;1224140;75;2920859;-71
2023/08/08 10:47:53;;;;;;;1.80;1.10;;;;;;;22.84;39.35;97826.09;1223612;75;2920599;-73
2023/08/08 10:50:26;;;;;;;0.75;0.60;;;;;;;22.98;40.51;97821.88;1224020;75;2917881;-71
2023/08/08 10:53:00;;;;;;;1.40;0.60;;;;;;;22.72;41.17;97820.88;1223750;75;2921728;-71
2023/08/08 10:55:39;;;;;;;1.65;0.80;;;;;;;22.96;41.38;97818.88;1223633;75;2920123;-70
2023/08/08 10:58:15;;;;;;;1.90;1.00;;;;;;;23.32;41.10;97820.75;1223969;75;2922055;-73
2023/08/08 11:00:48;;;;;;;0.55;0.55;;;;;;;23.54;39.69;97816.44;1224069;75;2923250;-72
2023/08/08 11:03:21;;;;;;;0.80;0.60;;;;;;;23.51;40.40;97812.72;1224154;75;2919630;-71
2023/08/08 11:05:55;;;;;;;0.75;0.60;;;;;;;23.48;40.76;97810.31;1224692;75;2927179;-72
2023/08/08 11:08:27;;;;;;;1.70;0.80;;;;;;;24.05;42.12;97811.88;1223965;75;2921880;-71
2023/08/08 11:11:03;;;;;;;0.75;0.60;;;;;;;23.23;43.09;97796.19;1222379;75;2928359;-69
2023/08/08 11:13:35;;;;;;;1.55;0.70;;;;;;;23.51;41.92;97798.75;1184695;75;6108098;-70
2023/08/08 11:16:08;;;;;;;6.30;0.60;;;;;;;24.17;42.32;97802.50;1223910;75;2922803;-68
2023/08/08 11:18:41;;;;;;;1.65;0.60;;;;;;;24.43;42.15;97801.25;1222509;75;2924379;-72
2023/08/08 11:21:16;;;;;;;1.30;0.70;;;;;;;23.75;43.00;97791.84;1221611;75;2927566;-69
2023/08/08 11:23:50;;;;;;;0.50;0.40;;;;;;;24.07;42.61;97792.47;1223993;75;2922069;-72
2023/08/08 11:26:27;;;;;;;1.65;0.80;;;;;;;23.71;43.50;97799.09;1223625;75;2921052;-68
2023/08/08 11:28:59;;;;;;;1.35;0.60;;;;;;;23.71;43.78;97791.44;1222395;75;2932622;-74
2023/08/08 11:31:32;;;;;;;0.95;0.60;;;;;;;24.36;43.82;97790.09;1222390;75;2927467;-71
2023/08/08 11:34:06;;;;;;;0.55;0.50;;;;;;;23.39;42.72;97786.47;1223833;75;2918786;-71
2023/08/08 11:36:40;;;;;;;2.75;0.70;;;;;;;22.99;43.62;97786.31;1223435;75;2921999;-73
2023/08/08 11:39:13;;;;;;;2.05;0.60;;;;;;;23.58;43.55;97775.63;1222851;75;2919626;-71
2023/08/08 11:41:48;;;;;;;1.20;0.70;;;;;;;22.95;44.47;97779.03;1221247;75;2929117;-72
2023/08/08 11:44:21;;;;;;;0.80;0.70;;;;;;;23.35;45.05;97772.13;1222474;75;2931271;-70